createdAt,value
2018-11-29T00:00:19.378Z,6.00
2018-11-29T00:02:48.351Z,6.00
2018-11-29T00:05:22.791Z,6.00
2018-11-29T00:08:06.583Z,5.90
2018-11-29T00:10:35.379Z,5.90
2018-11-29T00:19:48.497Z,5.90
2018-11-29T00:22:17.287Z,5.90
2018-11-29T00:24:46.132Z,5.90
2018-11-29T00:27:14.914Z,6.00
2018-11-29T00:29:43.703Z,5.90
2018-11-29T00:32:12.501Z,6.00
2018-11-29T00:34:41.288Z,6.00
2018-11-29T00:37:10.132Z,6.00
2018-11-29T00:39:38.935Z,6.10
2018-11-29T00:42:07.779Z,6.10
2018-11-29T00:44:36.568Z,6.00
2018-11-29T00:47:05.631Z,6.00
2018-11-29T00:49:34.434Z,6.00
2018-11-29T00:52:03.230Z,6.00
2018-11-29T00:54:32.032Z,6.00
2018-11-29T00:57:00.860Z,6.00
2018-11-29T00:59:29.674Z,6.00
2018-11-29T01:02:00.851Z,6.00
2018-11-29T01:04:29.659Z,6.00
2018-11-29T01:06:58.488Z,6.00
2018-11-29T01:09:27.288Z,6.00
2018-11-29T01:11:56.072Z,6.10
2018-11-29T01:14:24.877Z,6.10
2018-11-29T01:16:53.660Z,6.10
2018-11-29T01:19:22.458Z,6.10
2018-11-29T01:21:51.266Z,6.10
2018-11-29T01:24:20.064Z,6.00
2018-11-29T01:26:48.875Z,5.90
2018-11-29T01:29:17.685Z,5.90
2018-11-29T01:31:46.497Z,5.80
2018-11-29T01:34:15.317Z,5.90
2018-11-29T01:36:44.107Z,5.90
2018-11-29T01:39:12.939Z,5.90
2018-11-29T01:41:41.783Z,6.00
2018-11-29T01:44:10.635Z,6.00
2018-11-29T01:46:39.414Z,6.00
2018-11-29T01:49:08.227Z,6.10
2018-11-29T01:51:37.087Z,6.10
2018-11-29T01:54:05.887Z,6.10
2018-11-29T01:56:34.693Z,6.10
2018-11-29T01:59:03.523Z,6.20
2018-11-29T02:01:32.316Z,6.20
2018-11-29T02:04:01.137Z,6.20
2018-11-29T02:06:29.926Z,6.30
2018-11-29T02:08:58.728Z,6.30
2018-11-29T02:11:27.541Z,6.30
2018-11-29T02:13:56.359Z,6.20
2018-11-29T02:16:25.163Z,6.20
2018-11-29T02:18:53.940Z,6.30
2018-11-29T02:21:22.732Z,6.30
2018-11-29T02:23:51.520Z,6.30
2018-11-29T02:26:21.224Z,6.30
2018-11-29T02:28:49.999Z,6.40
2018-11-29T02:31:18.814Z,6.40
2018-11-29T02:33:47.602Z,6.50
2018-11-29T02:36:16.391Z,6.50
2018-11-29T02:38:45.566Z,6.50
2018-11-29T02:41:14.368Z,6.50
2018-11-29T02:43:43.158Z,6.50
2018-11-29T02:46:11.949Z,6.50
2018-11-29T02:48:40.797Z,6.40
2018-11-29T02:51:09.734Z,6.40
2018-11-29T02:53:38.564Z,6.40
2018-11-29T02:56:07.360Z,6.30
2018-11-29T02:58:36.182Z,6.30
2018-11-29T03:01:05.046Z,6.30
2018-11-29T03:03:33.856Z,6.20
2018-11-29T03:06:02.658Z,6.10
2018-11-29T03:08:31.452Z,6.00
2018-11-29T03:11:00.231Z,5.90
2018-11-29T03:13:29.025Z,5.90
2018-11-29T03:15:57.832Z,5.80
2018-11-29T03:18:26.652Z,5.70
2018-11-29T03:20:55.432Z,5.70
2018-11-29T03:23:24.292Z,5.70
2018-11-29T03:25:53.445Z,5.70
2018-11-29T03:28:22.236Z,5.60
2018-11-29T03:30:51.048Z,5.60
2018-11-29T03:33:19.835Z,5.70
2018-11-29T03:35:48.656Z,5.70
2018-11-29T03:38:17.470Z,5.70
2018-11-29T03:40:46.279Z,5.70
2018-11-29T03:43:15.098Z,5.70
2018-11-29T03:45:43.928Z,5.70
2018-11-29T03:48:12.912Z,5.70
2018-11-29T03:50:41.693Z,5.80
2018-11-29T03:53:10.516Z,5.80
2018-11-29T03:55:39.282Z,5.80
2018-11-29T03:58:08.108Z,5.80
2018-11-29T04:00:36.916Z,5.90
2018-11-29T04:03:06.490Z,5.90
2018-11-29T04:05:35.364Z,5.90
2018-11-29T04:08:04.104Z,5.90
2018-11-29T04:10:32.945Z,5.90
2018-11-29T04:13:01.730Z,5.90
2018-11-29T04:15:30.543Z,5.90
2018-11-29T04:17:59.324Z,5.90
2018-11-29T04:20:28.144Z,5.80
2018-11-29T04:22:56.988Z,5.70
2018-11-29T04:25:25.788Z,5.70
2018-11-29T04:27:54.602Z,5.70
2018-11-29T04:30:23.421Z,5.70
2018-11-29T04:32:53.336Z,5.60
2018-11-29T04:35:21.201Z,5.60
2018-11-29T04:37:49.987Z,5.60
2018-11-29T04:40:18.760Z,5.60
2018-11-29T04:42:47.627Z,5.50
2018-11-29T04:45:17.290Z,5.50
2018-11-29T04:47:46.449Z,5.50
2018-11-29T04:50:16.295Z,5.50
2018-11-29T04:52:45.173Z,5.50
2018-11-29T04:55:13.937Z,5.40
2018-11-29T04:57:42.741Z,5.40
2018-11-29T05:00:13.762Z,5.30
2018-11-29T05:02:42.629Z,5.30
2018-11-29T05:05:11.986Z,5.30
2018-11-29T05:07:40.782Z,5.30
2018-11-29T05:10:10.866Z,5.40
2018-11-29T05:12:39.717Z,5.40
2018-11-29T05:15:09.978Z,5.40
2018-11-29T05:17:38.798Z,5.40
2018-11-29T05:20:07.813Z,5.40
2018-11-29T05:22:36.649Z,5.40
2018-11-29T05:25:06.190Z,5.40
2018-11-29T05:27:35.251Z,5.40
2018-11-29T05:30:05.741Z,5.40
2018-11-29T05:32:34.561Z,5.40
2018-11-29T05:35:03.405Z,5.40
2018-11-29T05:37:32.224Z,5.50
2018-11-29T05:40:01.011Z,5.50
2018-11-29T05:42:29.811Z,5.40
2018-11-29T05:44:58.599Z,5.50
2018-11-29T05:47:27.399Z,5.50
2018-11-29T05:49:56.195Z,5.50
2018-11-29T05:52:24.995Z,5.50
2018-11-29T05:54:53.773Z,5.50
2018-11-29T05:57:22.587Z,5.50
2018-11-29T05:59:51.383Z,5.50
2018-11-29T06:02:20.169Z,5.50
2018-11-29T06:04:48.955Z,5.60
2018-11-29T06:07:17.769Z,5.60
2018-11-29T06:09:46.621Z,5.60
2018-11-29T06:12:15.418Z,5.60
2018-11-29T06:14:44.249Z,5.60
2018-11-29T06:17:13.091Z,5.60
2018-11-29T06:19:41.886Z,5.60
2018-11-29T06:22:10.717Z,5.60
2018-11-29T06:26:08.999Z,5.50
2018-11-29T06:28:37.813Z,5.50
2018-11-29T06:31:06.597Z,5.50
2018-11-29T06:33:35.418Z,5.50
2018-11-29T06:36:04.214Z,5.40
2018-11-29T06:38:33.017Z,5.40
2018-11-29T06:41:01.836Z,5.40
2018-11-29T06:43:30.635Z,5.40
2018-11-29T06:45:59.441Z,5.40
2018-11-29T06:48:28.259Z,5.30
2018-11-29T06:50:57.066Z,5.30
2018-11-29T06:53:31.133Z,5.30
2018-11-29T06:55:59.942Z,5.30
2018-11-29T06:58:28.712Z,5.30
2018-11-29T07:00:57.518Z,5.30
2018-11-29T07:03:28.840Z,5.30
2018-11-29T07:05:55.124Z,5.30
2018-11-29T07:08:24.004Z,5.20
2018-11-29T07:10:53.170Z,5.20
2018-11-29T07:13:22.026Z,5.20
2018-11-29T07:15:50.848Z,5.20
2018-11-29T07:18:19.648Z,5.20
2018-11-29T07:20:59.836Z,5.20
2018-11-29T07:23:28.656Z,5.20
2018-11-29T07:25:57.468Z,5.20
2018-11-29T07:28:26.265Z,5.20
2018-11-29T07:30:55.063Z,5.20
2018-11-29T07:33:23.878Z,5.10
2018-11-29T07:35:52.673Z,5.00
2018-11-29T07:38:21.496Z,5.00
2018-11-29T07:40:50.908Z,5.00
2018-11-29T07:43:19.714Z,4.90
2018-11-29T07:45:48.532Z,4.90
2018-11-29T07:48:17.326Z,4.80
2018-11-29T07:50:46.130Z,4.80
2018-11-29T07:53:14.916Z,4.80
2018-11-29T07:55:43.708Z,4.80
2018-11-29T07:58:12.500Z,4.80
2018-11-29T08:00:41.298Z,4.80
2018-11-29T08:03:10.117Z,4.80
2018-11-29T08:05:38.916Z,4.90
2018-11-29T08:08:07.744Z,5.00
2018-11-29T08:10:36.536Z,5.10
2018-11-29T08:13:05.590Z,5.10
2018-11-29T08:15:34.362Z,5.20
2018-11-29T08:18:03.189Z,5.20
2018-11-29T08:20:32.010Z,5.20
2018-11-29T08:23:00.882Z,5.30
2018-11-29T08:25:29.716Z,5.30
2018-11-29T08:27:58.518Z,5.40
2018-11-29T08:30:27.315Z,5.60
2018-11-29T08:32:56.158Z,5.60
2018-11-29T08:35:24.972Z,5.70
2018-11-29T08:37:53.791Z,5.60
2018-11-29T08:40:22.584Z,5.70
2018-11-29T08:42:51.479Z,5.70
2018-11-29T08:45:20.475Z,5.80
2018-11-29T08:47:49.307Z,5.90
2018-11-29T08:50:18.131Z,5.90
2018-11-29T08:52:47.150Z,5.90
2018-11-29T08:55:18.003Z,5.90
2018-11-29T08:57:47.872Z,5.90
2018-11-29T09:00:18.448Z,5.90
2018-11-29T09:02:47.349Z,6.00
2018-11-29T09:05:16.153Z,6.10
2018-11-29T09:07:45.964Z,6.10
2018-11-29T09:10:18.836Z,6.30
2018-11-29T09:12:47.728Z,6.50
2018-11-29T09:15:17.132Z,6.50
2018-11-29T09:17:46.249Z,6.70
2018-11-29T09:20:16.187Z,6.80
2018-11-29T09:22:44.987Z,6.90
2018-11-29T09:25:14.843Z,7.10
2018-11-29T09:27:43.634Z,7.20
2018-11-29T09:30:13.409Z,7.20
2018-11-29T09:32:42.901Z,7.30
2018-11-29T09:35:11.736Z,7.50
2018-11-29T09:37:40.551Z,7.80
2018-11-29T09:40:13.292Z,8.00
2018-11-29T09:42:42.229Z,8.10
2018-11-29T09:45:18.834Z,8.10
2018-11-29T09:47:48.836Z,8.00
2018-11-29T09:50:18.054Z,7.70
2018-11-29T09:52:46.935Z,7.50
2018-11-29T09:55:16.481Z,7.30
2018-11-29T09:57:45.958Z,7.10
2018-11-29T10:00:18.757Z,6.90
2018-11-29T10:02:50.393Z,6.80
2018-11-29T10:05:19.212Z,6.80
2018-11-29T10:07:48.022Z,6.80
2018-11-29T10:10:16.810Z,6.90
2018-11-29T10:12:45.674Z,6.90
2018-11-29T10:15:14.466Z,6.90
2018-11-29T10:17:43.678Z,7.00
2018-11-29T10:20:12.997Z,7.10
2018-11-29T10:22:42.570Z,7.20
2018-11-29T10:25:12.523Z,7.30
2018-11-29T10:27:42.756Z,7.30
2018-11-29T10:30:17.632Z,7.20
2018-11-29T10:32:46.502Z,7.20
2018-11-29T10:35:15.306Z,7.20
2018-11-29T10:37:44.096Z,7.30
2018-11-29T10:40:12.912Z,7.40
2018-11-29T10:42:41.784Z,7.40
2018-11-29T10:45:14.689Z,7.30
2018-11-29T10:47:44.382Z,7.20
2018-11-29T10:50:14.013Z,7.30
2018-11-29T10:52:42.906Z,7.40
2018-11-29T10:55:15.166Z,7.50
2018-11-29T10:57:43.997Z,7.50
2018-11-29T11:00:33.690Z,7.60
2018-11-29T11:03:18.398Z,7.60
2018-11-29T11:05:48.609Z,7.60
2018-11-29T11:08:17.783Z,7.70
2018-11-29T11:10:47.112Z,7.90
2018-11-29T11:13:15.962Z,8.10
2018-11-29T11:15:44.970Z,8.20
2018-11-29T11:18:14.709Z,8.40
2018-11-29T11:20:43.561Z,8.50
2018-11-29T11:23:12.369Z,8.50
2018-11-29T11:25:41.189Z,8.40
2018-11-29T11:28:10.494Z,8.30
2018-11-29T11:30:41.240Z,8.30
2018-11-29T11:33:10.027Z,8.30
2018-11-29T11:35:38.842Z,8.30
2018-11-29T11:38:07.664Z,8.20
2018-11-29T11:40:36.459Z,8.10
2018-11-29T11:43:06.228Z,8.10
2018-11-29T11:45:34.991Z,8.10
2018-11-29T11:48:03.821Z,8.00
2018-11-29T11:50:32.617Z,8.00
2018-11-29T11:53:01.428Z,8.00
2018-11-29T11:55:30.512Z,8.00
2018-11-29T11:57:59.046Z,8.00
2018-11-29T12:00:28.942Z,8.00
2018-11-29T12:03:10.987Z,8.00
2018-11-29T12:05:39.799Z,8.00
2018-11-29T12:08:08.658Z,8.00
2018-11-29T12:10:38.321Z,8.00
2018-11-29T12:13:07.655Z,7.90
2018-11-29T12:15:37.123Z,7.80
2018-11-29T12:18:07.861Z,7.70
2018-11-29T12:20:36.640Z,7.70
2018-11-29T12:23:06.372Z,7.80
2018-11-29T12:25:35.189Z,7.80
2018-11-29T12:28:03.993Z,7.70
2018-11-29T12:30:35.600Z,7.60
2018-11-29T12:33:06.182Z,7.60
2018-11-29T12:35:34.981Z,7.60
2018-11-29T12:38:03.792Z,7.50
2018-11-29T12:40:32.570Z,7.50
2018-11-29T12:43:01.446Z,7.50
2018-11-29T12:45:31.706Z,7.50
2018-11-29T12:48:00.495Z,7.50
2018-11-29T12:50:29.278Z,7.40
2018-11-29T12:52:58.208Z,7.30
2018-11-29T12:55:27.470Z,7.20
2018-11-29T12:58:04.791Z,7.20
2018-11-29T13:00:25.695Z,7.10
2018-11-29T13:02:56.426Z,7.00
2018-11-29T13:05:25.902Z,7.00
2018-11-29T13:07:54.772Z,7.00
2018-11-29T13:10:24.506Z,7.00
2018-11-29T13:12:54.085Z,7.10
2018-11-29T13:15:31.023Z,7.10
2018-11-29T13:18:00.739Z,7.20
2018-11-29T13:20:32.456Z,7.20
2018-11-29T13:22:58.396Z,7.30
2018-11-29T13:25:28.094Z,7.30
2018-11-29T13:27:56.900Z,7.40
2018-11-29T13:30:25.751Z,7.40
2018-11-29T13:32:55.638Z,7.50
2018-11-29T13:35:36.020Z,7.50
2018-11-29T13:38:12.069Z,7.60
2018-11-29T13:40:43.286Z,7.60
2018-11-29T13:43:12.094Z,7.70
2018-11-29T13:45:40.901Z,7.50
2018-11-29T13:48:10.510Z,7.40
2018-11-29T13:50:40.064Z,7.30
2018-11-29T13:53:08.827Z,7.30
2018-11-29T13:55:37.797Z,7.20
2018-11-29T13:58:06.702Z,7.10
2018-11-29T14:00:35.520Z,7.00
2018-11-29T14:03:09.472Z,6.90
2018-11-29T14:05:38.037Z,6.80
2018-11-29T14:08:07.827Z,6.60
2018-11-29T14:10:37.116Z,6.40
2018-11-29T14:13:07.655Z,6.40
2018-11-29T14:15:37.376Z,6.40
2018-11-29T14:18:07.657Z,6.50
2018-11-29T14:20:36.630Z,6.60
2018-11-29T14:23:05.494Z,6.60
2018-11-29T14:25:34.288Z,6.60
2018-11-29T14:28:03.094Z,6.60
2018-11-29T14:30:31.962Z,6.70
2018-11-29T14:33:01.014Z,6.80
2018-11-29T14:35:29.806Z,6.80
2018-11-29T14:37:58.607Z,6.90
2018-11-29T14:40:29.339Z,6.80
2018-11-29T14:42:58.338Z,6.80
2018-11-29T14:45:28.600Z,6.80
2018-11-29T14:47:57.400Z,6.80
2018-11-29T14:50:31.968Z,6.80
2018-11-29T14:53:00.986Z,6.80
2018-11-29T14:55:29.787Z,6.80
2018-11-29T14:57:58.615Z,6.80
2018-11-29T15:00:27.411Z,6.80
2018-11-29T15:02:56.996Z,6.80
2018-11-29T15:05:27.120Z,6.70
2018-11-29T15:07:55.936Z,6.70
2018-11-29T15:10:24.734Z,6.70
2018-11-29T15:12:53.652Z,6.70
2018-11-29T15:15:22.461Z,6.70
2018-11-29T15:17:52.626Z,6.60
2018-11-29T15:20:27.294Z,6.70
2018-11-29T15:22:55.750Z,6.60
2018-11-29T15:25:24.551Z,6.60
2018-11-29T15:27:53.377Z,6.50
2018-11-29T15:30:23.024Z,6.50
2018-11-29T15:32:51.926Z,6.50
2018-11-29T15:35:20.841Z,6.60
2018-11-29T15:37:49.673Z,6.60
2018-11-29T15:40:18.603Z,6.60
2018-11-29T15:42:47.492Z,6.50
2018-11-29T15:45:20.501Z,6.50
2018-11-29T15:47:49.369Z,6.50
2018-11-29T15:50:18.224Z,6.50
2018-11-29T15:52:47.064Z,6.50
2018-11-29T15:55:16.917Z,6.50
2018-11-29T15:57:46.830Z,6.40
2018-11-29T16:00:22.370Z,6.40
2018-11-29T16:02:51.564Z,6.40
2018-11-29T16:05:20.601Z,6.40
2018-11-29T16:07:49.443Z,6.30
2018-11-29T16:10:19.481Z,6.30
2018-11-29T16:12:48.389Z,6.30
2018-11-29T16:15:18.103Z,6.30
2018-11-29T16:17:47.823Z,6.20
2018-11-29T16:20:23.899Z,6.20
2018-11-29T16:22:52.835Z,6.30
2018-11-29T16:25:21.643Z,6.30
2018-11-29T16:27:50.451Z,6.30
2018-11-29T16:30:22.744Z,6.30
2018-11-29T16:32:51.663Z,6.30
2018-11-29T16:35:21.055Z,6.30
2018-11-29T16:37:49.855Z,6.40
2018-11-29T16:40:18.695Z,6.40
2018-11-29T16:42:47.501Z,6.30
2018-11-29T16:45:16.331Z,6.40
2018-11-29T16:47:45.147Z,6.40
2018-11-29T16:50:14.981Z,6.40
2018-11-29T16:52:43.867Z,6.40
2018-11-29T16:55:12.877Z,6.40
2018-11-29T16:57:44.495Z,6.40
2018-11-29T17:00:15.566Z,6.40
2018-11-29T17:02:44.524Z,6.40
2018-11-29T17:05:14.031Z,6.40
2018-11-29T17:07:42.837Z,6.40
2018-11-29T17:10:13.865Z,6.40
2018-11-29T17:12:44.198Z,6.30
2018-11-29T17:15:16.991Z,6.20
2018-11-29T17:17:45.789Z,6.10
2018-11-29T17:20:15.543Z,6.10
2018-11-29T17:22:45.225Z,6.00
2018-11-29T17:25:14.107Z,6.00
2018-11-29T17:27:42.901Z,6.00
2018-11-29T17:30:20.440Z,5.90
2018-11-29T17:32:50.251Z,5.90
2018-11-29T17:35:19.089Z,5.90
2018-11-29T17:37:48.097Z,5.90
2018-11-29T17:40:19.809Z,5.90
2018-11-29T17:42:48.977Z,5.80
2018-11-29T17:45:23.825Z,5.80
2018-11-29T17:47:55.124Z,5.80
2018-11-29T17:50:26.511Z,5.80
2018-11-29T17:52:55.395Z,5.80
2018-11-29T17:55:24.221Z,5.70
2018-11-29T17:57:53.044Z,5.70
2018-11-29T18:00:23.093Z,5.70
2018-11-29T18:02:51.956Z,5.60
2018-11-29T18:05:20.945Z,5.60
2018-11-29T18:07:49.775Z,5.60
2018-11-29T18:10:21.609Z,5.60
2018-11-29T18:12:52.310Z,5.60
2018-11-29T18:15:24.674Z,5.50
2018-11-29T18:17:53.482Z,5.40
2018-11-29T18:20:22.294Z,5.40
2018-11-29T18:22:51.212Z,5.40
2018-11-29T18:25:20.018Z,5.40
2018-11-29T18:27:49.962Z,5.40
2018-11-29T18:30:19.749Z,5.40
2018-11-29T18:32:48.568Z,5.30
2018-11-29T18:35:17.429Z,5.30
2018-11-29T18:37:46.252Z,5.20
2018-11-29T18:40:19.013Z,5.20
2018-11-29T18:42:52.454Z,5.10
2018-11-29T18:45:21.287Z,5.10
2018-11-29T18:47:51.151Z,5.10
2018-11-29T18:50:20.948Z,5.10
2018-11-29T18:52:50.211Z,5.20
2018-11-29T18:55:19.461Z,5.20
2018-11-29T18:57:48.286Z,5.20
2018-11-29T19:00:20.528Z,5.20
2018-11-29T19:02:49.418Z,5.20
2018-11-29T19:05:18.246Z,5.20
2018-11-29T19:07:47.051Z,5.20
2018-11-29T19:10:16.739Z,5.20
2018-11-29T19:12:50.293Z,5.20
2018-11-29T19:15:19.091Z,5.10
2018-11-29T19:17:47.887Z,5.20
2018-11-29T19:20:16.715Z,5.20
2018-11-29T19:22:45.592Z,5.30
2018-11-29T19:25:15.577Z,5.30
2018-11-29T19:27:44.365Z,5.30
2018-11-29T19:30:17.343Z,5.30
2018-11-29T19:32:48.506Z,5.30
2018-11-29T19:35:17.314Z,5.30
2018-11-29T19:37:46.130Z,5.40
2018-11-29T19:40:15.691Z,5.40
2018-11-29T19:42:44.536Z,5.40
2018-11-29T19:45:14.384Z,5.40
2018-11-29T19:47:43.218Z,5.30
2018-11-29T19:50:13.939Z,5.30
2018-11-29T19:52:43.736Z,5.30
2018-11-29T19:55:14.186Z,5.30
2018-11-29T19:57:43.047Z,5.30
2018-11-29T20:00:12.854Z,5.30
2018-11-29T20:02:42.711Z,5.40
2018-11-29T20:05:12.301Z,5.40
2018-11-29T20:07:41.195Z,5.40
2018-11-29T20:10:11.237Z,5.40
2018-11-29T20:12:40.199Z,5.40
2018-11-29T20:15:12.822Z,5.40
2018-11-29T20:17:42.089Z,5.30
2018-11-29T20:20:11.924Z,5.40
2018-11-29T20:22:41.769Z,5.40
2018-11-29T20:25:12.684Z,5.30
2018-11-29T20:27:41.818Z,5.30
2018-11-29T20:30:16.611Z,5.30
2018-11-29T20:32:45.828Z,5.30
2018-11-29T20:35:17.571Z,5.30
2018-11-29T20:37:46.545Z,5.30
2018-11-29T20:40:18.530Z,5.20
2018-11-29T20:42:48.694Z,5.20
2018-11-29T20:45:21.650Z,5.10
2018-11-29T20:47:50.959Z,5.10
2018-11-29T20:50:21.459Z,5.10
2018-11-29T20:52:51.503Z,5.10
2018-11-29T20:55:27.889Z,5.10
2018-11-29T20:57:56.817Z,5.00
2018-11-29T21:00:25.614Z,5.00
2018-11-29T21:02:54.831Z,5.00
2018-11-29T21:05:24.711Z,5.00
2018-11-29T21:07:56.073Z,5.00
2018-11-29T21:10:25.596Z,5.00
2018-11-29T21:12:54.748Z,5.10
2018-11-29T21:15:23.571Z,5.00
2018-11-29T21:17:52.350Z,5.00
2018-11-29T21:20:21.407Z,5.00
2018-11-29T21:22:51.046Z,5.00
2018-11-29T21:25:22.194Z,5.00
2018-11-29T21:27:51.081Z,5.00
2018-11-29T21:30:19.881Z,5.00
2018-11-29T21:32:49.210Z,4.90
2018-11-29T21:35:19.627Z,4.90
2018-11-29T21:37:48.730Z,4.90
2018-11-29T21:40:20.088Z,4.90
2018-11-29T21:42:48.934Z,4.90
2018-11-29T21:45:17.756Z,4.90
2018-11-29T21:47:46.555Z,4.80
2018-11-29T21:50:15.374Z,4.80
2018-11-29T21:52:44.251Z,4.90
2018-11-29T21:55:14.152Z,4.90
2018-11-29T21:57:43.975Z,4.90
2018-11-29T22:00:16.526Z,5.00
2018-11-29T22:02:54.319Z,5.00
2018-11-29T22:05:23.510Z,5.10
2018-11-29T22:07:52.838Z,5.10
2018-11-29T22:10:22.759Z,5.10
2018-11-29T22:12:52.464Z,5.20
2018-11-29T22:15:22.421Z,5.20
2018-11-29T22:18:04.804Z,5.30
2018-11-29T22:20:34.730Z,5.30
2018-11-29T22:23:03.882Z,5.30
2018-11-29T22:25:33.492Z,5.30
2018-11-29T22:28:02.606Z,5.40
2018-11-29T22:30:32.471Z,5.40
2018-11-29T22:33:03.717Z,5.40
2018-11-29T22:35:33.749Z,5.50
2018-11-29T22:38:03.704Z,5.50
2018-11-29T22:40:32.531Z,5.50
2018-11-29T22:43:01.375Z,5.60
2018-11-29T22:45:30.173Z,5.60
2018-11-29T22:47:59.024Z,5.60
2018-11-29T22:50:27.851Z,5.60
2018-11-29T22:52:56.752Z,5.70
2018-11-29T22:55:25.515Z,5.70
2018-11-29T22:57:54.323Z,5.70
2018-11-29T23:00:23.141Z,5.70
2018-11-29T23:02:51.943Z,5.70
2018-11-29T23:05:21.069Z,5.70
2018-11-29T23:07:49.882Z,5.70
2018-11-29T23:10:18.705Z,5.60
2018-11-29T23:12:47.566Z,5.50
2018-11-29T23:15:16.366Z,5.50
2018-11-29T23:17:45.170Z,5.40
2018-11-29T23:20:13.980Z,5.40
2018-11-29T23:22:42.840Z,5.30
2018-11-29T23:25:12.806Z,5.30
2018-11-29T23:27:41.880Z,5.20
2018-11-29T23:30:15.766Z,5.20
2018-11-29T23:32:44.664Z,5.10
2018-11-29T23:35:14.392Z,5.10
2018-11-29T23:37:43.205Z,5.00
2018-11-29T23:40:15.832Z,5.00
2018-11-29T23:42:45.013Z,4.90
2018-11-29T23:45:14.422Z,5.00
2018-11-29T23:47:43.482Z,5.00
2018-11-29T23:50:14.441Z,5.00
2018-11-29T23:52:43.318Z,5.10
2018-11-29T23:55:15.121Z,5.10
2018-11-29T23:57:43.924Z,5.20
